createdAt,value
2023-01-04T00:00:50.701Z,101705.34
2023-01-04T00:03:17.208Z,101695.75
2023-01-04T00:05:43.778Z,101693.13
2023-01-04T00:08:10.151Z,101690.50
2023-01-04T00:10:36.511Z,101673.78
2023-01-04T00:13:03.127Z,101672.88
2023-01-04T00:15:29.606Z,101659.78
2023-01-04T00:17:55.986Z,101651.84
2023-01-04T00:20:22.375Z,101645.78
2023-01-04T00:22:48.766Z,101649.25
2023-01-04T00:25:15.208Z,101649.22
2023-01-04T00:27:42.191Z,101626.44
2023-01-04T00:30:09.379Z,101642.22
2023-01-04T00:32:35.777Z,101622.16
2023-01-04T00:35:02.248Z,101630.06
2023-01-04T00:37:28.806Z,101617.75
2023-01-04T00:39:58.425Z,101597.63
2023-01-04T00:42:25.291Z,101597.72
2023-01-04T00:44:52.266Z,101600.38
2023-01-04T00:47:18.755Z,101608.22
2023-01-04T00:49:45.157Z,101588.06
2023-01-04T00:52:12.709Z,101587.13
2023-01-04T00:54:39.107Z,101598.59
2023-01-04T00:57:07.288Z,101586.31
2023-01-04T00:59:33.645Z,101576.75
2023-01-04T01:02:00.680Z,101567.16
2023-01-04T01:04:27.459Z,101563.66
2023-01-04T01:06:54.142Z,101555.94
2023-01-04T01:09:24.067Z,101545.53
2023-01-04T01:11:52.530Z,101538.59
2023-01-04T01:14:24.920Z,101551.72
2023-01-04T01:16:55.923Z,101542.16
2023-01-04T01:19:24.998Z,101539.59
2023-01-04T01:21:51.603Z,101533.47
2023-01-04T01:24:19.613Z,101546.63
2023-01-04T01:26:46.340Z,101546.63
2023-01-04T01:29:12.763Z,101528.34
2023-01-04T01:31:41.121Z,101512.69
2023-01-04T01:34:08.022Z,101538.09
2023-01-04T01:36:34.495Z,101521.50
2023-01-04T01:39:02.166Z,101509.31
2023-01-04T01:41:31.306Z,101513.75
2023-01-04T01:44:18.106Z,101508.50
2023-01-04T01:46:49.070Z,101516.50
2023-01-04T01:49:35.546Z,101499.06
2023-01-04T01:52:06.523Z,101511.34
2023-01-04T01:54:42.895Z,101506.19
2023-01-04T01:57:13.448Z,101494.81
2023-01-04T01:59:43.964Z,101509.78
2023-01-04T02:02:11.870Z,101503.69
2023-01-04T02:04:42.450Z,101500.28
2023-01-04T02:07:11.161Z,101465.28
2023-01-04T02:09:38.209Z,101495.13
2023-01-04T02:12:11.292Z,101490.78
2023-01-04T02:14:38.384Z,101501.34
2023-01-04T02:17:38.088Z,101501.41
2023-01-04T02:20:12.677Z,101501.41
2023-01-04T02:22:50.899Z,101497.16
2023-01-04T02:25:32.376Z,101496.38
2023-01-04T02:28:29.601Z,101502.56
2023-01-04T02:31:27.992Z,101487.81
2023-01-04T02:34:03.565Z,101487.84
2023-01-04T02:36:45.061Z,101491.41
2023-01-04T02:39:25.689Z,101495.91
2023-01-04T02:42:02.699Z,101484.56
2023-01-04T02:44:55.928Z,101467.97
2023-01-04T02:47:46.602Z,101475.91
2023-01-04T02:50:33.994Z,101475.06
2023-01-04T02:53:23.097Z,101463.75
2023-01-04T02:55:59.415Z,101465.50
2023-01-04T02:58:50.554Z,101455.91
2023-01-04T03:01:54.551Z,101451.59
2023-01-04T03:05:06.380Z,101456.03
2023-01-04T03:08:14.720Z,101468.38
2023-01-04T03:10:49.253Z,101461.47
2023-01-04T03:13:26.529Z,101437.00
2023-01-04T03:16:00.495Z,101450.19
2023-01-04T03:18:33.934Z,101447.63
2023-01-04T03:21:03.617Z,101435.41
2023-01-04T03:23:54.175Z,101447.72
2023-01-04T03:26:45.570Z,101443.34
2023-01-04T03:29:49.025Z,101446.88
2023-01-04T03:32:44.649Z,101433.75
2023-01-04T03:35:28.284Z,101439.94
2023-01-04T03:38:52.695Z,101430.34
2023-01-04T03:41:46.262Z,101426.78
2023-01-04T03:44:45.360Z,101448.72
2023-01-04T03:47:47.800Z,101426.88
2023-01-04T03:50:25.046Z,101430.38
2023-01-04T03:52:53.933Z,101406.75
2023-01-04T03:55:22.194Z,101415.59
2023-01-04T03:57:49.634Z,101405.16
2023-01-04T04:00:18.752Z,101413.03
2023-01-04T04:02:48.041Z,101400.81
2023-01-04T04:05:37.166Z,101392.09
2023-01-04T04:08:22.971Z,101390.41
2023-01-04T04:10:49.685Z,101397.44
2023-01-04T04:13:16.105Z,101389.59
2023-01-04T04:15:42.729Z,101379.94
2023-01-04T04:18:09.788Z,101386.13
2023-01-04T04:20:38.320Z,101380.91
2023-01-04T04:23:06.829Z,101394.06
2023-01-04T04:25:33.900Z,101380.09
2023-01-04T04:28:00.490Z,101362.59
2023-01-04T04:30:27.282Z,101370.53
2023-01-04T04:32:54.245Z,101371.44
2023-01-04T04:35:20.636Z,101363.56
2023-01-04T04:37:47.496Z,101355.69
2023-01-04T04:40:36.820Z,101370.63
2023-01-04T04:43:03.290Z,101332.97
2023-01-04T04:45:30.397Z,101365.41
2023-01-04T04:47:56.963Z,101318.03
2023-01-04T04:50:23.401Z,101339.19
2023-01-04T04:52:55.804Z,101346.25
2023-01-04T04:55:23.172Z,101348.00
2023-01-04T04:57:55.372Z,101340.16
2023-01-04T05:00:21.667Z,101343.66
2023-01-04T05:02:48.239Z,101336.59
2023-01-04T05:05:15.192Z,101349.78
2023-01-04T05:07:41.653Z,101343.66
2023-01-04T05:10:08.530Z,101351.53
2023-01-04T05:12:57.750Z,101348.03
2023-01-04T05:15:36.323Z,101342.78
2023-01-04T05:18:03.894Z,101341.03
2023-01-04T05:20:30.536Z,101328.75
2023-01-04T05:22:58.091Z,101320.81
2023-01-04T05:25:25.465Z,101327.84
2023-01-04T05:27:51.943Z,101314.69
2023-01-04T05:30:37.792Z,101312.03
2023-01-04T05:33:05.487Z,101292.72
2023-01-04T05:35:32.394Z,101294.44
2023-01-04T05:38:01.980Z,101289.16
2023-01-04T05:40:29.057Z,101303.19
2023-01-04T05:42:55.813Z,101276.00
2023-01-04T05:45:22.606Z,101269.00
2023-01-04T05:47:53.103Z,101276.09
2023-01-04T05:50:21.675Z,101286.59
2023-01-04T05:52:48.796Z,101265.56
2023-01-04T05:55:15.521Z,101268.19
2023-01-04T05:57:42.161Z,101262.88
2023-01-04T06:00:12.948Z,101275.22
2023-01-04T06:02:40.722Z,101263.84
2023-01-04T06:05:08.390Z,101269.09
2023-01-04T06:07:36.107Z,101264.75
2023-01-04T06:10:02.764Z,101263.03
2023-01-04T06:12:29.276Z,101276.19
2023-01-04T06:14:55.634Z,101306.91
2023-01-04T06:17:22.043Z,101318.34
2023-01-04T06:19:48.767Z,101321.00
2023-01-04T06:22:15.766Z,101303.50
2023-01-04T06:24:43.597Z,101292.09
2023-01-04T06:27:10.790Z,101287.72
2023-01-04T06:29:37.303Z,101300.91
2023-01-04T06:32:04.025Z,101298.25
2023-01-04T06:34:31.406Z,101286.03
2023-01-04T06:36:58.634Z,101293.94
2023-01-04T06:39:25.348Z,101289.59
2023-01-04T06:41:57.868Z,101284.34
2023-01-04T06:44:28.510Z,101290.53
2023-01-04T06:46:55.085Z,101280.00
2023-01-04T06:49:21.447Z,101284.41
2023-01-04T06:51:47.945Z,101269.53
2023-01-04T06:54:14.369Z,101263.44
2023-01-04T06:56:41.463Z,101270.44
2023-01-04T06:59:09.682Z,101261.66
2023-01-04T07:01:36.340Z,101240.59
2023-01-04T07:04:03.087Z,101243.22
2023-01-04T07:06:29.437Z,101246.72
2023-01-04T07:08:55.907Z,101249.38
2023-01-04T07:11:22.374Z,101244.13
2023-01-04T07:13:48.848Z,101249.38
2023-01-04T07:16:15.321Z,101248.50
2023-01-04T07:18:41.769Z,101252.00
2023-01-04T07:21:08.146Z,101256.38
2023-01-04T07:23:34.666Z,101251.09
2023-01-04T07:26:02.758Z,101244.06
2023-01-04T07:28:48.117Z,101247.63
2023-01-04T07:31:14.614Z,101244.94
2023-01-04T07:33:41.271Z,101247.56
2023-01-04T07:36:08.276Z,101244.06
2023-01-04T07:38:35.294Z,101230.91
2023-01-04T07:41:01.926Z,101236.13
2023-01-04T07:43:28.797Z,101224.72
2023-01-04T07:45:55.594Z,101231.75
2023-01-04T07:48:22.212Z,101226.47
2023-01-04T07:50:49.910Z,101227.38
2023-01-04T07:53:16.628Z,101213.31
2023-01-04T07:55:43.148Z,101229.09
2023-01-04T07:58:09.707Z,101216.88
2023-01-04T08:00:36.219Z,101218.59
2023-01-04T08:03:02.732Z,101212.47
2023-01-04T08:05:32.344Z,101224.75
2023-01-04T08:07:58.904Z,101219.50
2023-01-04T08:10:25.267Z,101225.63
2023-01-04T08:12:51.668Z,101226.50
2023-01-04T08:15:18.127Z,101224.75
2023-01-04T08:17:53.210Z,101222.09
2023-01-04T08:20:19.753Z,101211.53
2023-01-04T08:22:46.192Z,101223.03
2023-01-04T08:25:12.593Z,101222.16
2023-01-04T08:27:39.291Z,101221.28
2023-01-04T08:30:09.377Z,101226.56
2023-01-04T08:32:35.805Z,101235.31
2023-01-04T08:35:03.471Z,101237.94
2023-01-04T08:37:31.868Z,101229.16
2023-01-04T08:39:58.271Z,101238.88
2023-01-04T08:42:31.178Z,101249.41
2023-01-04T08:45:01.195Z,101235.31
2023-01-04T08:47:32.075Z,101246.78
2023-01-04T08:50:03.242Z,101247.66
2023-01-04T08:52:39.340Z,101246.78
2023-01-04T08:55:12.285Z,101248.56
2023-01-04T08:57:39.932Z,101248.63
2023-01-04T09:00:07.212Z,101253.88
2023-01-04T09:02:33.801Z,101254.81
2023-01-04T09:05:02.953Z,101262.69
2023-01-04T09:07:32.836Z,101257.47
2023-01-04T09:10:00.688Z,101261.84
2023-01-04T09:12:27.440Z,101270.69
2023-01-04T09:14:53.900Z,101274.19
2023-01-04T09:17:20.362Z,101271.53
2023-01-04T09:19:47.003Z,101267.19
2023-01-04T09:22:13.516Z,101260.19
2023-01-04T09:24:39.994Z,101259.31
2023-01-04T09:27:06.587Z,101260.19
2023-01-04T09:29:33.077Z,101285.69
2023-01-04T09:31:59.465Z,101276.94
2023-01-04T09:34:25.980Z,101272.56
2023-01-04T09:36:52.539Z,101270.00
2023-01-04T09:39:22.937Z,101277.91
2023-01-04T09:41:56.874Z,101285.81
2023-01-04T09:45:21.911Z,101271.78
2023-01-04T09:48:07.070Z,101269.19
2023-01-04T09:50:54.351Z,101261.28
2023-01-04T09:53:53.006Z,101280.63
2023-01-04T09:56:27.710Z,101277.13
2023-01-04T09:58:55.234Z,101276.25
2023-01-04T10:01:46.476Z,101269.28
2023-01-04T10:04:24.880Z,101279.78
2023-01-04T10:06:52.979Z,101299.09
2023-01-04T10:09:20.265Z,101276.28
2023-01-04T10:12:25.679Z,101290.38
2023-01-04T10:15:14.114Z,101274.59
2023-01-04T10:19:23.517Z,101271.06
2023-01-04T10:23:58.382Z,101280.72
2023-01-04T10:26:34.846Z,101276.38
2023-01-04T10:29:36.626Z,101279.03
2023-01-04T10:32:34.015Z,101271.97
2023-01-04T10:35:00.541Z,101267.59
2023-01-04T10:37:37.031Z,101262.22
2023-01-04T10:40:14.824Z,101275.47
2023-01-04T10:43:21.846Z,101259.69
2023-01-04T10:46:08.925Z,101266.69
2023-01-04T10:48:48.960Z,101253.53
2023-01-04T10:51:21.414Z,101251.75
2023-01-04T10:53:56.711Z,101247.38
2023-01-04T10:57:02.375Z,101251.75
2023-01-04T10:59:43.251Z,101275.44
2023-01-04T11:02:19.235Z,101248.22
2023-01-04T11:04:57.792Z,101230.66
2023-01-04T11:07:33.076Z,101221.91
2023-01-04T11:10:08.489Z,101220.16
2023-01-04T11:12:34.944Z,101222.84
2023-01-04T11:15:01.528Z,101213.19
2023-01-04T11:17:28.512Z,101222.00
2023-01-04T11:19:55.144Z,101228.19
2023-01-04T11:22:29.428Z,101203.56
2023-01-04T11:28:06.372Z,101215.91
2023-01-04T11:30:45.352Z,101217.66
2023-01-04T11:33:17.003Z,101208.00
2023-01-04T11:35:44.557Z,101206.31
2023-01-04T11:38:12.356Z,101213.31
2023-01-04T11:40:39.350Z,101215.97
2023-01-04T11:43:20.629Z,101199.28
2023-01-04T11:46:16.694Z,101202.78
2023-01-04T11:48:45.844Z,101201.94
2023-01-04T11:51:27.583Z,101207.25
2023-01-04T11:54:15.488Z,101216.06
2023-01-04T11:57:20.753Z,101238.03
2023-01-04T12:00:14.155Z,101209.03
2023-01-04T12:05:30.576Z,101212.59
2023-01-04T12:07:58.934Z,101209.97
2023-01-04T12:10:27.565Z,101199.41
2023-01-04T12:12:55.726Z,101221.41
2023-01-04T12:15:32.841Z,101227.59
2023-01-04T12:18:17.018Z,101217.91
2023-01-04T12:20:44.025Z,101210.00
2023-01-04T12:23:13.148Z,101210.00
2023-01-04T12:25:45.339Z,101211.78
2023-01-04T12:28:32.480Z,101186.22
2023-01-04T12:31:21.478Z,101210.91
2023-01-04T12:33:55.226Z,101198.59
2023-01-04T12:36:44.679Z,101213.53
2023-01-04T12:39:14.171Z,101202.09
2023-01-04T12:41:40.781Z,101210.91
2023-01-04T12:44:36.455Z,101212.66
2023-01-04T12:47:23.423Z,101203.84
2023-01-04T12:50:01.046Z,101198.59
2023-01-04T12:52:42.589Z,101200.34
2023-01-04T12:55:19.606Z,101203.00
2023-01-04T12:57:48.867Z,101188.06
2023-01-04T13:00:16.963Z,101188.91
2023-01-04T13:02:52.256Z,101218.84
2023-01-04T13:05:54.751Z,101215.31
2023-01-04T13:08:11.710Z,101210.91
2023-01-04T13:10:44.902Z,101211.78
2023-01-04T13:13:42.458Z,101210.03
2023-01-04T13:16:11.727Z,101209.16
2023-01-04T13:18:45.736Z,101209.19
2023-01-04T13:21:49.769Z,101218.84
2023-01-04T13:24:35.291Z,101216.19
2023-01-04T13:27:14.084Z,101206.50
2023-01-04T13:29:41.760Z,101213.53
2023-01-04T13:32:14.864Z,101218.81
2023-01-04T13:34:51.015Z,101217.03
2023-01-04T13:37:28.213Z,101209.13
2023-01-04T13:40:29.777Z,101201.22
2023-01-04T13:43:01.979Z,101207.38
2023-01-04T13:45:32.724Z,101194.16
2023-01-04T13:48:03.485Z,101189.75
2023-01-04T13:51:00.752Z,101206.44
2023-01-04T13:53:29.606Z,101201.19
2023-01-04T13:56:01.689Z,101201.19
2023-01-04T13:58:32.987Z,101195.91
2023-01-04T14:01:07.671Z,101205.56
2023-01-04T14:03:43.427Z,101192.41
2023-01-04T14:06:09.903Z,101217.88
2023-01-04T14:08:40.940Z,101177.47
2023-01-04T14:11:43.234Z,101180.97
2023-01-04T14:14:22.093Z,101195.91
2023-01-04T14:16:51.011Z,101192.38
2023-01-04T14:19:47.881Z,101198.53
2023-01-04T14:22:26.362Z,101201.13
2023-01-04T14:25:09.051Z,101190.59
2023-01-04T14:27:42.456Z,101188.84
2023-01-04T14:30:17.918Z,101188.84
2023-01-04T14:32:59.439Z,101191.47
2023-01-04T14:35:28.561Z,101185.31
2023-01-04T14:38:01.618Z,101184.44
2023-01-04T14:40:31.719Z,101178.28
2023-01-04T14:42:58.604Z,101183.53
2023-01-04T14:45:27.829Z,101174.78
2023-01-04T14:47:54.296Z,101176.53
2023-01-04T14:50:20.671Z,101182.69
2023-01-04T14:52:51.823Z,101181.81
2023-01-04T14:55:18.439Z,101189.72
2023-01-04T14:57:45.281Z,101184.47
2023-01-04T15:00:19.415Z,101191.47
2023-01-04T15:02:50.217Z,101187.09
2023-01-04T15:05:19.897Z,101198.53
2023-01-04T15:07:46.697Z,101201.16
2023-01-04T15:10:22.029Z,101205.59
2023-01-04T15:12:48.414Z,101205.56
2023-01-04T15:15:15.207Z,101213.50
2023-01-04T15:17:41.618Z,101205.59
2023-01-04T15:20:08.811Z,101202.09
2023-01-04T15:22:35.319Z,101210.00
2023-01-04T15:25:01.861Z,101211.72
2023-01-04T15:27:31.872Z,101199.44
2023-01-04T15:30:00.110Z,101192.41
2023-01-04T15:32:26.547Z,101199.41
2023-01-04T15:34:53.281Z,101199.41
2023-01-04T15:37:23.896Z,101188.00
2023-01-04T15:39:53.200Z,101195.03
2023-01-04T15:42:55.792Z,101184.50
2023-01-04T15:45:23.889Z,101174.81
2023-01-04T15:47:51.253Z,101188.00
2023-01-04T15:50:19.276Z,101190.63
2023-01-04T15:52:45.891Z,101179.19
2023-01-04T15:55:14.248Z,101173.03
2023-01-04T15:57:44.030Z,101181.81
2023-01-04T16:00:11.650Z,101183.56
2023-01-04T16:02:38.243Z,101175.66
2023-01-04T16:05:05.265Z,101180.06
2023-01-04T16:07:36.246Z,101181.81
2023-01-04T16:10:03.496Z,101187.09
2023-01-04T16:12:42.278Z,101174.78
2023-01-04T16:15:10.174Z,101189.72
2023-01-04T16:17:36.574Z,101193.22
2023-01-04T16:20:04.159Z,101191.44
2023-01-04T16:22:30.866Z,101190.59
2023-01-04T16:25:10.249Z,101207.28
2023-01-04T16:27:39.143Z,101196.72
2023-01-04T16:30:08.885Z,101201.09
2023-01-04T16:32:36.344Z,101214.28
2023-01-04T16:35:03.982Z,101219.53
2023-01-04T16:37:30.787Z,101218.69
2023-01-04T16:40:12.574Z,101201.97
2023-01-04T16:42:39.749Z,101190.59
2023-01-04T16:45:07.214Z,101194.09
2023-01-04T16:47:41.387Z,101201.13
2023-01-04T16:50:09.532Z,101215.19
2023-01-04T16:52:36.082Z,101195.84
2023-01-04T16:55:02.623Z,101205.50
2023-01-04T16:57:29.138Z,101202.88
2023-01-04T16:59:55.724Z,101221.31
2023-01-04T17:02:23.172Z,101224.81
2023-01-04T17:04:55.161Z,101236.25
2023-01-04T17:07:21.779Z,101238.00
2023-01-04T17:09:49.737Z,101237.97
2023-01-04T17:17:49.030Z,101230.03
2023-01-04T17:20:15.403Z,101237.97
2023-01-04T17:22:41.887Z,101240.59
2023-01-04T17:25:08.465Z,101244.09
2023-01-04T17:27:35.448Z,101243.22
2023-01-04T17:30:02.096Z,101230.06
2023-01-04T17:32:28.594Z,101231.81
2023-01-04T17:34:57.412Z,101238.88
2023-01-04T17:37:23.910Z,101229.22
2023-01-04T17:39:50.504Z,101253.81
2023-01-04T17:42:17.230Z,101267.88
2023-01-04T17:44:43.763Z,101273.16
2023-01-04T17:47:10.234Z,101265.28
2023-01-04T17:49:42.740Z,101262.59
2023-01-04T17:52:10.995Z,101268.75
2023-01-04T17:54:40.151Z,101279.28
2023-01-04T17:57:06.500Z,101272.25
2023-01-04T17:59:33.038Z,101281.03
2023-01-04T18:01:59.533Z,101275.75
2023-01-04T18:04:28.736Z,101281.00
2023-01-04T18:06:56.333Z,101282.78
2023-01-04T18:09:24.940Z,101282.78
2023-01-04T18:11:51.430Z,101277.50
2023-01-04T18:14:18.007Z,101278.38
2023-01-04T18:16:57.199Z,101286.25
2023-01-04T18:19:26.093Z,101276.59
2023-01-04T18:21:52.846Z,101232.47
2023-01-04T18:24:36.832Z,101287.16
2023-01-04T18:29:53.775Z,101288.88
2023-01-04T18:32:21.184Z,101288.84
2023-01-04T18:34:47.667Z,101291.50
2023-01-04T18:37:15.651Z,101270.41
2023-01-04T18:39:42.113Z,101271.28
2023-01-04T18:42:08.707Z,101276.53
2023-01-04T18:44:35.985Z,101267.75
2023-01-04T18:47:03.724Z,101276.53
2023-01-04T18:49:30.286Z,101278.28
2023-01-04T18:51:56.872Z,101280.00
2023-01-04T18:54:23.414Z,101290.56
2023-01-04T18:57:01.239Z,101276.50
2023-01-04T18:59:31.278Z,101287.00
2023-01-04T19:02:02.009Z,101284.38
2023-01-04T19:04:33.858Z,101295.78
2023-01-04T19:07:00.935Z,101286.13
2023-01-04T19:09:27.321Z,101279.94
2023-01-04T19:11:53.825Z,101294.91
2023-01-04T19:14:20.491Z,101292.22
2023-01-04T19:16:47.100Z,101286.94
2023-01-04T19:19:13.614Z,101289.59
2023-01-04T19:21:40.087Z,101301.00
2023-01-04T19:24:07.262Z,101297.53
2023-01-04T19:26:33.810Z,101297.50
2023-01-04T19:29:03.063Z,101296.63
2023-01-04T19:31:29.539Z,101312.44
2023-01-04T19:33:55.925Z,101300.16
2023-01-04T19:36:22.461Z,101301.88
2023-01-04T19:38:48.892Z,101301.91
2023-01-04T19:41:26.537Z,101314.19
2023-01-04T19:43:57.438Z,101307.16
2023-01-04T19:46:23.918Z,101309.78
2023-01-04T19:48:51.938Z,101307.13
2023-01-04T19:51:18.800Z,101315.03
2023-01-04T19:53:45.500Z,101318.56
2023-01-04T19:56:13.972Z,101313.28
2023-01-04T19:58:40.857Z,101315.91
2023-01-04T20:01:07.657Z,101327.34
2023-01-04T20:03:34.488Z,101335.25
2023-01-04T20:06:05.878Z,101330.00
2023-01-04T20:08:32.987Z,101340.56
2023-01-04T20:11:00.922Z,101337.03
2023-01-04T20:13:28.884Z,101347.56
2023-01-04T20:15:55.664Z,101347.56
2023-01-04T20:18:24.040Z,101345.81
2023-01-04T20:20:52.569Z,101347.59
2023-01-04T20:23:19.674Z,101344.03
2023-01-04T20:25:48.727Z,101351.09
2023-01-04T20:28:22.325Z,101346.72
2023-01-04T20:30:48.863Z,101349.38
2023-01-04T20:33:15.330Z,101364.25
2023-01-04T20:35:46.229Z,101373.94
2023-01-04T20:38:12.922Z,101360.75
2023-01-04T20:40:40.696Z,101356.31
2023-01-04T20:43:26.580Z,101356.34
2023-01-04T20:45:53.028Z,101360.72
2023-01-04T20:48:19.565Z,101369.50
2023-01-04T20:50:46.298Z,101366.88
2023-01-04T20:53:13.579Z,101373.03
2023-01-04T20:55:41.987Z,101380.91
2023-01-04T20:58:09.213Z,101368.66
2023-01-04T21:00:39.446Z,101376.53
2023-01-04T21:03:08.832Z,101374.78
2023-01-04T21:05:40.953Z,101376.50
2023-01-04T21:08:07.489Z,101375.63
2023-01-04T21:10:34.870Z,101387.03
2023-01-04T21:13:01.768Z,101395.78
2023-01-04T21:15:28.233Z,101382.63
2023-01-04T21:17:54.758Z,101389.69
2023-01-04T21:20:21.636Z,101385.28
2023-01-04T21:22:48.228Z,101390.53
2023-01-04T21:25:14.804Z,101390.56
2023-01-04T21:27:41.395Z,101399.44
2023-01-04T21:30:08.355Z,101392.41
2023-01-04T21:32:34.818Z,101396.78
2023-01-04T21:35:01.242Z,101403.72
2023-01-04T21:37:28.700Z,101422.22
2023-01-04T21:39:55.251Z,101422.22
2023-01-04T21:42:21.615Z,101400.13
2023-01-04T21:44:47.968Z,101423.88
2023-01-04T21:47:14.380Z,101435.28
2023-01-04T21:49:43.641Z,101430.00
2023-01-04T21:52:10.973Z,101433.50
2023-01-04T21:54:38.199Z,101430.84
2023-01-04T21:57:07.736Z,101426.44
2023-01-04T21:59:35.438Z,101429.03
2023-01-04T22:02:01.932Z,101429.91
2023-01-04T22:04:28.484Z,101437.84
2023-01-04T22:06:54.884Z,101429.91
2023-01-04T22:09:21.553Z,101443.06
2023-01-04T22:11:50.013Z,101419.28
2023-01-04T22:14:17.767Z,101435.97
2023-01-04T22:16:44.397Z,101428.88
2023-01-04T22:19:12.526Z,101422.72
2023-01-04T22:21:39.442Z,101431.50
2023-01-04T22:24:06.902Z,101429.72
2023-01-04T22:26:34.288Z,101446.44
2023-01-04T22:29:01.457Z,101431.50
2023-01-04T22:31:28.228Z,101443.81
2023-01-04T22:33:54.639Z,101448.16
2023-01-04T22:36:23.252Z,101450.75
2023-01-04T22:38:52.029Z,101451.69
2023-01-04T22:41:21.094Z,101451.69
2023-01-04T22:43:48.108Z,101447.28
2023-01-04T22:46:17.701Z,101462.22
2023-01-04T22:48:45.376Z,101457.00
2023-01-04T22:51:16.956Z,101467.53
2023-01-04T22:53:44.112Z,101462.25
2023-01-04T22:56:21.921Z,101469.28
2023-01-04T22:58:53.554Z,101474.53
2023-01-04T23:01:24.084Z,101470.97
2023-01-04T23:03:51.829Z,101474.47
2023-01-04T23:06:18.785Z,101479.72
2023-01-04T23:08:45.126Z,101485.88
2023-01-04T23:11:14.344Z,101493.72
2023-01-04T23:13:41.296Z,101504.25
2023-01-04T23:16:10.276Z,101489.28
2023-01-04T23:18:37.545Z,101486.63
2023-01-04T23:21:06.475Z,101493.63
2023-01-04T23:23:33.275Z,101491.84
2023-01-04T23:26:13.453Z,101490.88
2023-01-04T23:28:40.193Z,101496.13
2023-01-04T23:31:09.347Z,101490.81
2023-01-04T23:33:41.029Z,101499.53
2023-01-04T23:36:08.606Z,101497.69
2023-01-04T23:38:35.139Z,101497.63
2023-01-04T23:41:07.422Z,101502.00
2023-01-04T23:43:38.380Z,101488.78
2023-01-04T23:46:18.473Z,101505.41
2023-01-04T23:48:44.996Z,101514.16
2023-01-04T23:51:15.130Z,101511.50
2023-01-04T23:53:41.576Z,101511.56
2023-01-04T23:56:15.527Z,101517.66
2023-01-04T23:58:42.179Z,101505.31
